Hundvaag 1 weather for Apr 1990
Month no. 34
Obs.
Da.
Temp. Dew Point Precip. Wind
Speed
Wind gusts Cloud cover Press. Humidity Wind dir. Sunny OPT
01.04.1990 6,9   0,0                
02.04.1990 6,2   0,2                
03.04.1990 5,2   6,6                
04.04.1990 1,4   0,4             1  
05.04.1990 3,2   0,2                
06.04.1990 2,2   16,4             1  
07.04.1990 1,8   0,0             1  
08.04.1990 -1,9   0,0                
09.04.1990 4,2   0,0                
10.04.1990 2,9   7,3                
11.04.1990 3,7   13,3             1  
12.04.1990 8,9   1,6                
13.04.1990 8,0   4,5             1  
14.04.1990 5,6   9,0             1  
15.04.1990 4,8   5,2                
16.04.1990 6,0   5,5             1  
17.04.1990 1,3   7,1             1  
18.04.1990 1,7   5,5                
19.04.1990 4,8   2,6             1  
20.04.1990 6,7   1,4                
21.04.1990 11,1   0,0                
22.04.1990 12,6   3,0             1  
23.04.1990 6,2   0,0             1  
24.04.1990 5,0   0,0             1  
25.04.1990 5,1   0,0             1  
26.04.1990 7,6   6,4             1  
27.04.1990 2,8   9,3             1  
28.04.1990 4,5   3,0                
29.04.1990 9,2   18,0                
30.04.1990 8,1   1,3                
                       
Avrg/Sum 5,2   127,8             15